Terminal Aerodrome Forecast
Issued by NWS Cleveland, OH

Home | Current Version | Previous Version | Graphics & Text | Print | Product List | Glossary Off
Versions: 1 2 3 4 5 6 7 8 9 10 11 12 13 14 15 16 17 18 19 20 21

000
FTUS41 KCLE 271134
TAFMFD
TAF
KMFD 271134Z 2712/2812 21010KT P6SM BKN015
      TEMPO 2712/2714 SCT015
     FM271400 22012G22KT P6SM BKN015
     FM271600 22015G25KT P6SM BKN040
     FM271800 24018G28KT P6SM BKN050
      TEMPO 2720/2723 3SM -TSRA OVC035CB
     FM280200 28010KT P6SM VCSH BKN035 BKN120
     FM280800 30005KT 4SM BR SCT020=

USA.gov is the U.S. government's official web portal to all federal, state and local government web resources and services.